sensor_id;sensor_type;location;lat;lon;timestamp;P1;durP1;ratioP1;P2;durP2;ratioP2
14592;SDS011;7383;52.354;9.756;2022-09-09T00:01:49;1.48;;;1.20;;
14592;SDS011;7383;52.354;9.756;2022-09-09T00:04:23;1.60;;;1.42;;
14592;SDS011;7383;52.354;9.756;2022-09-09T00:06:56;1.63;;;1.52;;
14592;SDS011;7383;52.354;9.756;2022-09-09T00:09:31;1.98;;;1.38;;
14592;SDS011;7383;52.354;9.756;2022-09-09T00:12:08;1.20;;;1.10;;
14592;SDS011;7383;52.354;9.756;2022-09-09T00:14:40;1.23;;;0.95;;
14592;SDS011;7383;52.354;9.756;2022-09-09T00:20:11;1.23;;;1.23;;
14592;SDS011;7383;52.354;9.756;2022-09-09T00:22:45;1.05;;;1.00;;
14592;SDS011;7383;52.354;9.756;2022-09-09T00:25:19;1.10;;;1.10;;
14592;SDS011;7383;52.354;9.756;2022-09-09T00:27:53;0.80;;;0.80;;
14592;SDS011;7383;52.354;9.756;2022-09-09T00:30:22;1.00;;;0.82;;
14592;SDS011;7383;52.354;9.756;2022-09-09T00:32:53;1.40;;;1.00;;
14592;SDS011;7383;52.354;9.756;2022-09-09T00:35:24;1.02;;;0.98;;
14592;SDS011;7383;52.354;9.756;2022-09-09T00:37:55;0.90;;;0.80;;
14592;SDS011;7383;52.354;9.756;2022-09-09T00:40:32;1.00;;;1.00;;
14592;SDS011;7383;52.354;9.756;2022-09-09T00:43:07;1.13;;;0.88;;
14592;SDS011;7383;52.354;9.756;2022-09-09T00:45:52;0.80;;;0.80;;
14592;SDS011;7383;52.354;9.756;2022-09-09T00:48:30;0.63;;;0.63;;
14592;SDS011;7383;52.354;9.756;2022-09-09T00:51:09;0.50;;;0.50;;
14592;SDS011;7383;52.354;9.756;2022-09-09T00:53:54;0.80;;;0.70;;
14592;SDS011;7383;52.354;9.756;2022-09-09T00:56:35;0.75;;;0.75;;
14592;SDS011;7383;52.354;9.756;2022-09-09T00:59:11;0.63;;;0.63;;
14592;SDS011;7383;52.354;9.756;2022-09-09T01:01:49;1.45;;;0.98;;
14592;SDS011;7383;52.354;9.756;2022-09-09T01:04:19;0.85;;;0.70;;
14592;SDS011;7383;52.354;9.756;2022-09-09T01:06:57;1.05;;;0.80;;
14592;SDS011;7383;52.354;9.756;2022-09-09T01:09:37;0.75;;;0.75;;
14592;SDS011;7383;52.354;9.756;2022-09-09T01:12:25;0.60;;;0.60;;
14592;SDS011;7383;52.354;9.756;2022-09-09T01:14:58;1.40;;;0.90;;
14592;SDS011;7383;52.354;9.756;2022-09-09T01:17:34;1.13;;;0.60;;
14592;SDS011;7383;52.354;9.756;2022-09-09T01:20:10;1.42;;;1.00;;
14592;SDS011;7383;52.354;9.756;2022-09-09T01:22:44;1.38;;;0.90;;
14592;SDS011;7383;52.354;9.756;2022-09-09T01:25:26;0.60;;;0.60;;
14592;SDS011;7383;52.354;9.756;2022-09-09T01:27:58;1.20;;;0.90;;
14592;SDS011;7383;52.354;9.756;2022-09-09T01:30:27;0.75;;;0.75;;
14592;SDS011;7383;52.354;9.756;2022-09-09T01:32:55;1.85;;;0.65;;
14592;SDS011;7383;52.354;9.756;2022-09-09T01:35:29;1.05;;;0.60;;
14592;SDS011;7383;52.354;9.756;2022-09-09T01:38:03;0.70;;;0.70;;
14592;SDS011;7383;52.354;9.756;2022-09-09T01:40:30;0.50;;;0.50;;
14592;SDS011;7383;52.354;9.756;2022-09-09T01:42:59;0.75;;;0.60;;
14592;SDS011;7383;52.354;9.756;2022-09-09T01:45:26;0.93;;;0.82;;
14592;SDS011;7383;52.354;9.756;2022-09-09T01:47:52;0.47;;;0.47;;
14592;SDS011;7383;52.354;9.756;2022-09-09T01:50:19;1.48;;;0.45;;
14592;SDS011;7383;52.354;9.756;2022-09-09T01:52:48;1.20;;;0.50;;
14592;SDS011;7383;52.354;9.756;2022-09-09T01:55:18;0.68;;;0.68;;
14592;SDS011;7383;52.354;9.756;2022-09-09T01:57:55;0.73;;;0.73;;
14592;SDS011;7383;52.354;9.756;2022-09-09T02:00:35;0.80;;;0.80;;
14592;SDS011;7383;52.354;9.756;2022-09-09T02:03:08;3.08;;;0.88;;
14592;SDS011;7383;52.354;9.756;2022-09-09T02:05:43;0.73;;;0.73;;
14592;SDS011;7383;52.354;9.756;2022-09-09T02:08:16;1.27;;;0.60;;
14592;SDS011;7383;52.354;9.756;2022-09-09T02:10:47;0.65;;;0.65;;
14592;SDS011;7383;52.354;9.756;2022-09-09T02:13:22;0.60;;;0.60;;
14592;SDS011;7383;52.354;9.756;2022-09-09T02:15:51;0.73;;;0.60;;
14592;SDS011;7383;52.354;9.756;2022-09-09T02:18:22;0.70;;;0.63;;
14592;SDS011;7383;52.354;9.756;2022-09-09T02:20:53;0.70;;;0.70;;
14592;SDS011;7383;52.354;9.756;2022-09-09T02:23:20;0.90;;;0.90;;
14592;SDS011;7383;52.354;9.756;2022-09-09T02:25:47;0.60;;;0.60;;
14592;SDS011;7383;52.354;9.756;2022-09-09T02:28:16;0.73;;;0.73;;
14592;SDS011;7383;52.354;9.756;2022-09-09T02:30:47;1.00;;;0.90;;
14592;SDS011;7383;52.354;9.756;2022-09-09T02:33:20;0.80;;;0.80;;
14592;SDS011;7383;52.354;9.756;2022-09-09T02:35:50;0.57;;;0.57;;
14592;SDS011;7383;52.354;9.756;2022-09-09T02:38:18;0.80;;;0.80;;
14592;SDS011;7383;52.354;9.756;2022-09-09T02:40:48;0.93;;;0.70;;
14592;SDS011;7383;52.354;9.756;2022-09-09T02:43:14;1.02;;;0.90;;
14592;SDS011;7383;52.354;9.756;2022-09-09T02:45:44;1.00;;;0.80;;
14592;SDS011;7383;52.354;9.756;2022-09-09T02:48:21;1.80;;;1.13;;
14592;SDS011;7383;52.354;9.756;2022-09-09T02:50:58;1.52;;;0.80;;
14592;SDS011;7383;52.354;9.756;2022-09-09T02:53:33;0.80;;;0.80;;
14592;SDS011;7383;52.354;9.756;2022-09-09T02:56:09;1.50;;;0.82;;
14592;SDS011;7383;52.354;9.756;2022-09-09T02:58:44;2.08;;;1.00;;
14592;SDS011;7383;52.354;9.756;2022-09-09T03:01:18;0.93;;;0.73;;
14592;SDS011;7383;52.354;9.756;2022-09-09T03:03:44;0.80;;;0.80;;
14592;SDS011;7383;52.354;9.756;2022-09-09T03:06:11;1.60;;;1.00;;
14592;SDS011;7383;52.354;9.756;2022-09-09T03:08:39;0.90;;;0.90;;
14592;SDS011;7383;52.354;9.756;2022-09-09T03:11:07;1.10;;;1.00;;
14592;SDS011;7383;52.354;9.756;2022-09-09T03:13:34;0.80;;;0.75;;
14592;SDS011;7383;52.354;9.756;2022-09-09T03:16:00;0.52;;;0.52;;
14592;SDS011;7383;52.354;9.756;2022-09-09T03:18:30;0.95;;;0.90;;
14592;SDS011;7383;52.354;9.756;2022-09-09T03:20:57;0.90;;;0.90;;
14592;SDS011;7383;52.354;9.756;2022-09-09T03:23:24;0.80;;;0.80;;
14592;SDS011;7383;52.354;9.756;2022-09-09T03:25:51;0.70;;;0.70;;
14592;SDS011;7383;52.354;9.756;2022-09-09T03:28:21;1.70;;;1.20;;
14592;SDS011;7383;52.354;9.756;2022-09-09T03:30:50;0.80;;;0.80;;
14592;SDS011;7383;52.354;9.756;2022-09-09T03:33:16;1.17;;;0.90;;
14592;SDS011;7383;52.354;9.756;2022-09-09T03:35:46;1.15;;;1.08;;
14592;SDS011;7383;52.354;9.756;2022-09-09T03:38:13;1.45;;;0.80;;
14592;SDS011;7383;52.354;9.756;2022-09-09T03:40:43;1.40;;;1.10;;
14592;SDS011;7383;52.354;9.756;2022-09-09T03:43:14;1.48;;;0.95;;
14592;SDS011;7383;52.354;9.756;2022-09-09T03:45:41;1.08;;;0.98;;
14592;SDS011;7383;52.354;9.756;2022-09-09T03:48:11;1.70;;;1.00;;
14592;SDS011;7383;52.354;9.756;2022-09-09T03:50:38;1.10;;;1.00;;
14592;SDS011;7383;52.354;9.756;2022-09-09T03:53:05;1.00;;;0.80;;
14592;SDS011;7383;52.354;9.756;2022-09-09T03:55:32;0.63;;;0.63;;
14592;SDS011;7383;52.354;9.756;2022-09-09T03:57:58;1.30;;;1.20;;
14592;SDS011;7383;52.354;9.756;2022-09-09T04:00:25;0.85;;;0.85;;
14592;SDS011;7383;52.354;9.756;2022-09-09T04:02:51;1.13;;;0.90;;
14592;SDS011;7383;52.354;9.756;2022-09-09T04:05:19;1.55;;;1.30;;
14592;SDS011;7383;52.354;9.756;2022-09-09T04:07:45;1.10;;;1.00;;
14592;SDS011;7383;52.354;9.756;2022-09-09T04:10:13;1.20;;;1.10;;
14592;SDS011;7383;52.354;9.756;2022-09-09T04:12:40;1.20;;;1.10;;
14592;SDS011;7383;52.354;9.756;2022-09-09T04:15:07;1.58;;;1.10;;
14592;SDS011;7383;52.354;9.756;2022-09-09T04:17:35;1.08;;;0.98;;
14592;SDS011;7383;52.354;9.756;2022-09-09T04:20:02;1.38;;;1.00;;
14592;SDS011;7383;52.354;9.756;2022-09-09T04:22:28;1.45;;;1.05;;
14592;SDS011;7383;52.354;9.756;2022-09-09T04:24:55;2.15;;;1.20;;
14592;SDS011;7383;52.354;9.756;2022-09-09T04:27:25;1.13;;;0.82;;
14592;SDS011;7383;52.354;9.756;2022-09-09T04:29:52;1.02;;;0.75;;
14592;SDS011;7383;52.354;9.756;2022-09-09T04:32:27;1.05;;;0.98;;
14592;SDS011;7383;52.354;9.756;2022-09-09T04:34:53;1.15;;;0.90;;
14592;SDS011;7383;52.354;9.756;2022-09-09T04:37:19;1.02;;;0.93;;
14592;SDS011;7383;52.354;9.756;2022-09-09T04:39:46;0.70;;;0.70;;
14592;SDS011;7383;52.354;9.756;2022-09-09T04:42:12;1.50;;;0.95;;
14592;SDS011;7383;52.354;9.756;2022-09-09T04:44:40;1.20;;;1.10;;
14592;SDS011;7383;52.354;9.756;2022-09-09T04:47:06;1.65;;;1.23;;
14592;SDS011;7383;52.354;9.756;2022-09-09T04:49:33;1.58;;;1.10;;
14592;SDS011;7383;52.354;9.756;2022-09-09T04:51:59;1.17;;;1.02;;
14592;SDS011;7383;52.354;9.756;2022-09-09T04:54:29;1.23;;;1.10;;
14592;SDS011;7383;52.354;9.756;2022-09-09T04:56:55;1.10;;;1.00;;
14592;SDS011;7383;52.354;9.756;2022-09-09T04:59:22;1.13;;;0.98;;
14592;SDS011;7383;52.354;9.756;2022-09-09T05:01:49;1.23;;;1.13;;
14592;SDS011;7383;52.354;9.756;2022-09-09T05:04:16;1.20;;;1.10;;
14592;SDS011;7383;52.354;9.756;2022-09-09T05:06:44;0.80;;;0.80;;
14592;SDS011;7383;52.354;9.756;2022-09-09T05:09:10;1.00;;;0.93;;
14592;SDS011;7383;52.354;9.756;2022-09-09T05:11:37;1.20;;;0.90;;
14592;SDS011;7383;52.354;9.756;2022-09-09T05:14:04;1.05;;;0.98;;
14592;SDS011;7383;52.354;9.756;2022-09-09T05:16:30;0.90;;;0.90;;
14592;SDS011;7383;52.354;9.756;2022-09-09T05:18:58;1.35;;;1.17;;
14592;SDS011;7383;52.354;9.756;2022-09-09T05:21:25;1.00;;;1.00;;
14592;SDS011;7383;52.354;9.756;2022-09-09T05:23:53;1.05;;;1.00;;
14592;SDS011;7383;52.354;9.756;2022-09-09T05:26:20;3.17;;;1.40;;
14592;SDS011;7383;52.354;9.756;2022-09-09T05:28:49;1.13;;;0.90;;
14592;SDS011;7383;52.354;9.756;2022-09-09T05:31:16;1.20;;;1.10;;
14592;SDS011;7383;52.354;9.756;2022-09-09T05:33:44;3.17;;;1.15;;
14592;SDS011;7383;52.354;9.756;2022-09-09T05:36:13;1.30;;;1.20;;
14592;SDS011;7383;52.354;9.756;2022-09-09T05:38:43;1.58;;;1.27;;
14592;SDS011;7383;52.354;9.756;2022-09-09T05:41:10;1.23;;;1.10;;
14592;SDS011;7383;52.354;9.756;2022-09-09T05:43:38;1.00;;;0.90;;
14592;SDS011;7383;52.354;9.756;2022-09-09T05:46:05;2.40;;;1.10;;
14592;SDS011;7383;52.354;9.756;2022-09-09T05:48:35;1.37;;;1.17;;
14592;SDS011;7383;52.354;9.756;2022-09-09T05:51:04;1.10;;;0.90;;
14592;SDS011;7383;52.354;9.756;2022-09-09T05:53:33;1.90;;;1.20;;
14592;SDS011;7383;52.354;9.756;2022-09-09T05:56:00;1.08;;;1.05;;
14592;SDS011;7383;52.354;9.756;2022-09-09T05:58:28;1.37;;;1.30;;
14592;SDS011;7383;52.354;9.756;2022-09-09T06:01:04;1.80;;;1.40;;
14592;SDS011;7383;52.354;9.756;2022-09-09T06:03:34;1.98;;;1.20;;
14592;SDS011;7383;52.354;9.756;2022-09-09T06:06:03;2.08;;;1.20;;
14592;SDS011;7383;52.354;9.756;2022-09-09T06:08:33;1.10;;;0.90;;
14592;SDS011;7383;52.354;9.756;2022-09-09T06:11:02;2.40;;;1.30;;
14592;SDS011;7383;52.354;9.756;2022-09-09T06:13:30;1.25;;;1.15;;
14592;SDS011;7383;52.354;9.756;2022-09-09T06:15:57;1.95;;;1.25;;
14592;SDS011;7383;52.354;9.756;2022-09-09T06:18:24;1.20;;;1.02;;
14592;SDS011;7383;52.354;9.756;2022-09-09T06:20:55;2.30;;;1.40;;
14592;SDS011;7383;52.354;9.756;2022-09-09T06:23:22;1.13;;;1.02;;
14592;SDS011;7383;52.354;9.756;2022-09-09T06:25:51;0.95;;;0.95;;
14592;SDS011;7383;52.354;9.756;2022-09-09T06:28:17;0.95;;;0.93;;
14592;SDS011;7383;52.354;9.756;2022-09-09T06:30:44;1.70;;;1.20;;
14592;SDS011;7383;52.354;9.756;2022-09-09T06:33:10;2.40;;;1.27;;
14592;SDS011;7383;52.354;9.756;2022-09-09T06:35:37;1.30;;;1.20;;
14592;SDS011;7383;52.354;9.756;2022-09-09T06:38:03;1.95;;;1.20;;
14592;SDS011;7383;52.354;9.756;2022-09-09T06:40:30;1.50;;;1.00;;
14592;SDS011;7383;52.354;9.756;2022-09-09T06:43:00;0.95;;;0.93;;
14592;SDS011;7383;52.354;9.756;2022-09-09T06:45:27;1.52;;;1.42;;
14592;SDS011;7383;52.354;9.756;2022-09-09T06:47:54;1.45;;;1.17;;
14592;SDS011;7383;52.354;9.756;2022-09-09T06:50:20;1.40;;;1.27;;
14592;SDS011;7383;52.354;9.756;2022-09-09T06:52:47;1.55;;;1.25;;
14592;SDS011;7383;52.354;9.756;2022-09-09T06:55:15;1.42;;;1.33;;
14592;SDS011;7383;52.354;9.756;2022-09-09T06:57:42;1.48;;;1.20;;
14592;SDS011;7383;52.354;9.756;2022-09-09T07:00:18;1.40;;;1.30;;
14592;SDS011;7383;52.354;9.756;2022-09-09T07:02:44;1.58;;;1.48;;
14592;SDS011;7383;52.354;9.756;2022-09-09T07:05:10;1.35;;;1.25;;
14592;SDS011;7383;52.354;9.756;2022-09-09T07:07:37;1.70;;;1.60;;
14592;SDS011;7383;52.354;9.756;2022-09-09T07:10:03;2.38;;;1.40;;
14592;SDS011;7383;52.354;9.756;2022-09-09T07:12:30;2.63;;;1.23;;
14592;SDS011;7383;52.354;9.756;2022-09-09T07:14:57;2.03;;;1.77;;
14592;SDS011;7383;52.354;9.756;2022-09-09T07:17:24;1.60;;;1.50;;
14592;SDS011;7383;52.354;9.756;2022-09-09T07:19:51;1.80;;;1.20;;
14592;SDS011;7383;52.354;9.756;2022-09-09T07:22:17;1.45;;;1.35;;
14592;SDS011;7383;52.354;9.756;2022-09-09T07:24:45;1.85;;;1.60;;
14592;SDS011;7383;52.354;9.756;2022-09-09T07:27:11;1.70;;;1.60;;
14592;SDS011;7383;52.354;9.756;2022-09-09T07:29:38;2.67;;;1.50;;
14592;SDS011;7383;52.354;9.756;2022-09-09T07:32:04;1.90;;;1.40;;
14592;SDS011;7383;52.354;9.756;2022-09-09T07:34:32;2.00;;;1.80;;
14592;SDS011;7383;52.354;9.756;2022-09-09T07:36:59;3.17;;;1.70;;
14592;SDS011;7383;52.354;9.756;2022-09-09T07:39:26;1.95;;;1.50;;
14592;SDS011;7383;52.354;9.756;2022-09-09T07:41:52;2.17;;;2.00;;
14592;SDS011;7383;52.354;9.756;2022-09-09T07:44:20;1.55;;;1.45;;
14592;SDS011;7383;52.354;9.756;2022-09-09T07:46:49;1.60;;;1.50;;
14592;SDS011;7383;52.354;9.756;2022-09-09T07:49:17;2.22;;;1.55;;
14592;SDS011;7383;52.354;9.756;2022-09-09T07:52:08;1.55;;;1.30;;
14592;SDS011;7383;52.354;9.756;2022-09-09T07:54:37;1.35;;;1.35;;
14592;SDS011;7383;52.354;9.756;2022-09-09T07:57:03;1.40;;;1.30;;
14592;SDS011;7383;52.354;9.756;2022-09-09T07:59:30;1.58;;;1.33;;
14592;SDS011;7383;52.354;9.756;2022-09-09T08:01:56;1.25;;;1.15;;
14592;SDS011;7383;52.354;9.756;2022-09-09T08:04:23;1.63;;;1.42;;
14592;SDS011;7383;52.354;9.756;2022-09-09T08:06:53;1.17;;;1.05;;
14592;SDS011;7383;52.354;9.756;2022-09-09T08:09:23;1.00;;;1.00;;
14592;SDS011;7383;52.354;9.756;2022-09-09T08:11:52;1.20;;;1.10;;
14592;SDS011;7383;52.354;9.756;2022-09-09T08:14:18;1.30;;;1.15;;
14592;SDS011;7383;52.354;9.756;2022-09-09T08:16:45;1.92;;;1.15;;
14592;SDS011;7383;52.354;9.756;2022-09-09T08:19:13;1.88;;;1.10;;
14592;SDS011;7383;52.354;9.756;2022-09-09T08:21:40;1.08;;;1.05;;
14592;SDS011;7383;52.354;9.756;2022-09-09T08:24:08;1.17;;;1.00;;
14592;SDS011;7383;52.354;9.756;2022-09-09T08:26:38;1.10;;;0.90;;
14592;SDS011;7383;52.354;9.756;2022-09-09T08:29:06;1.50;;;1.15;;
14592;SDS011;7383;52.354;9.756;2022-09-09T08:31:35;1.00;;;1.00;;
14592;SDS011;7383;52.354;9.756;2022-09-09T08:34:03;1.00;;;1.00;;
14592;SDS011;7383;52.354;9.756;2022-09-09T08:36:31;1.10;;;1.00;;
14592;SDS011;7383;52.354;9.756;2022-09-09T08:38:59;1.33;;;1.20;;
14592;SDS011;7383;52.354;9.756;2022-09-09T08:41:36;1.00;;;1.00;;
14592;SDS011;7383;52.354;9.756;2022-09-09T08:44:28;2.85;;;1.90;;
14592;SDS011;7383;52.354;9.756;2022-09-09T08:47:04;1.65;;;1.30;;
14592;SDS011;7383;52.354;9.756;2022-09-09T08:49:45;1.05;;;0.93;;
14592;SDS011;7383;52.354;9.756;2022-09-09T08:52:23;1.00;;;1.00;;
14592;SDS011;7383;52.354;9.756;2022-09-09T08:54:54;0.93;;;0.90;;
14592;SDS011;7383;52.354;9.756;2022-09-09T08:57:25;2.15;;;1.20;;
14592;SDS011;7383;52.354;9.756;2022-09-09T08:59:55;1.10;;;1.00;;
14592;SDS011;7383;52.354;9.756;2022-09-09T09:02:23;2.25;;;1.20;;
14592;SDS011;7383;52.354;9.756;2022-09-09T09:05:00;2.78;;;1.27;;
14592;SDS011;7383;52.354;9.756;2022-09-09T09:07:39;1.90;;;1.17;;
14592;SDS011;7383;52.354;9.756;2022-09-09T09:10:18;2.35;;;1.13;;
14592;SDS011;7383;52.354;9.756;2022-09-09T09:12:55;2.03;;;1.45;;
14592;SDS011;7383;52.354;9.756;2022-09-09T09:15:30;1.65;;;1.15;;
14592;SDS011;7383;52.354;9.756;2022-09-09T09:18:01;1.85;;;1.10;;
14592;SDS011;7383;52.354;9.756;2022-09-09T09:20:29;1.30;;;1.20;;
14592;SDS011;7383;52.354;9.756;2022-09-09T09:23:04;1.20;;;0.90;;
14592;SDS011;7383;52.354;9.756;2022-09-09T09:25:33;1.13;;;1.02;;
14592;SDS011;7383;52.354;9.756;2022-09-09T09:28:10;0.80;;;0.80;;
14592;SDS011;7383;52.354;9.756;2022-09-09T09:30:44;1.55;;;0.90;;
14592;SDS011;7383;52.354;9.756;2022-09-09T09:33:15;1.30;;;1.20;;
14592;SDS011;7383;52.354;9.756;2022-09-09T09:35:48;2.05;;;1.20;;
14592;SDS011;7383;52.354;9.756;2022-09-09T09:38:19;1.23;;;1.15;;
14592;SDS011;7383;52.354;9.756;2022-09-09T09:40:50;2.63;;;1.40;;
14592;SDS011;7383;52.354;9.756;2022-09-09T09:43:20;1.17;;;1.08;;
14592;SDS011;7383;52.354;9.756;2022-09-09T09:45:51;3.30;;;1.20;;
14592;SDS011;7383;52.354;9.756;2022-09-09T09:48:17;1.73;;;1.33;;
14592;SDS011;7383;52.354;9.756;2022-09-09T09:50:47;1.45;;;0.98;;
14592;SDS011;7383;52.354;9.756;2022-09-09T09:53:20;1.55;;;1.05;;
14592;SDS011;7383;52.354;9.756;2022-09-09T09:55:50;1.30;;;0.98;;
14592;SDS011;7383;52.354;9.756;2022-09-09T09:58:20;2.70;;;1.10;;
14592;SDS011;7383;52.354;9.756;2022-09-09T10:00:47;1.20;;;0.95;;
14592;SDS011;7383;52.354;9.756;2022-09-09T10:03:22;0.90;;;0.90;;
14592;SDS011;7383;52.354;9.756;2022-09-09T10:05:51;0.90;;;0.90;;
14592;SDS011;7383;52.354;9.756;2022-09-09T10:08:22;1.60;;;1.27;;
14592;SDS011;7383;52.354;9.756;2022-09-09T10:13:46;1.20;;;1.10;;
14592;SDS011;7383;52.354;9.756;2022-09-09T10:16:24;1.83;;;1.10;;
14592;SDS011;7383;52.354;9.756;2022-09-09T10:19:00;2.15;;;1.20;;
14592;SDS011;7383;52.354;9.756;2022-09-09T10:21:43;1.13;;;1.02;;
14592;SDS011;7383;52.354;9.756;2022-09-09T10:24:26;1.45;;;0.85;;
14592;SDS011;7383;52.354;9.756;2022-09-09T10:27:15;1.30;;;1.13;;
14592;SDS011;7383;52.354;9.756;2022-09-09T10:29:55;1.40;;;0.90;;
14592;SDS011;7383;52.354;9.756;2022-09-09T10:32:36;2.00;;;1.20;;
14592;SDS011;7383;52.354;9.756;2022-09-09T10:35:10;1.50;;;1.13;;
14592;SDS011;7383;52.354;9.756;2022-09-09T10:40:43;1.77;;;1.20;;
14592;SDS011;7383;52.354;9.756;2022-09-09T10:43:31;1.65;;;1.20;;
14592;SDS011;7383;52.354;9.756;2022-09-09T10:46:15;2.28;;;1.17;;
14592;SDS011;7383;52.354;9.756;2022-09-09T10:49:01;2.92;;;1.20;;
14592;SDS011;7383;52.354;9.756;2022-09-09T10:51:45;1.63;;;1.17;;
14592;SDS011;7383;52.354;9.756;2022-09-09T10:54:23;2.15;;;1.30;;
14592;SDS011;7383;52.354;9.756;2022-09-09T10:56:58;2.03;;;1.20;;
14592;SDS011;7383;52.354;9.756;2022-09-09T10:59:30;1.50;;;1.23;;
14592;SDS011;7383;52.354;9.756;2022-09-09T11:02:02;2.00;;;1.33;;
14592;SDS011;7383;52.354;9.756;2022-09-09T11:04:39;1.75;;;1.15;;
14592;SDS011;7383;52.354;9.756;2022-09-09T11:07:10;1.48;;;1.20;;
14592;SDS011;7383;52.354;9.756;2022-09-09T11:09:40;1.50;;;1.23;;
14592;SDS011;7383;52.354;9.756;2022-09-09T11:12:12;1.63;;;1.00;;
14592;SDS011;7383;52.354;9.756;2022-09-09T11:14:41;1.90;;;1.30;;
14592;SDS011;7383;52.354;9.756;2022-09-09T11:17:12;1.45;;;0.80;;
14592;SDS011;7383;52.354;9.756;2022-09-09T11:19:43;0.93;;;0.88;;
14592;SDS011;7383;52.354;9.756;2022-09-09T11:22:15;1.67;;;1.05;;
14592;SDS011;7383;52.354;9.756;2022-09-09T11:24:51;1.27;;;1.17;;
14592;SDS011;7383;52.354;9.756;2022-09-09T11:27:24;1.20;;;0.80;;
14592;SDS011;7383;52.354;9.756;2022-09-09T11:39:16;1.00;;;0.90;;
14592;SDS011;7383;52.354;9.756;2022-09-09T11:42:05;1.20;;;0.90;;
14592;SDS011;7383;52.354;9.756;2022-09-09T11:44:32;1.25;;;0.77;;
14592;SDS011;7383;52.354;9.756;2022-09-09T11:46:59;1.90;;;0.80;;
14592;SDS011;7383;52.354;9.756;2022-09-09T11:49:26;1.90;;;0.70;;
14592;SDS011;7383;52.354;9.756;2022-09-09T11:51:56;1.15;;;0.80;;
14592;SDS011;7383;52.354;9.756;2022-09-09T11:54:31;1.75;;;0.80;;
14592;SDS011;7383;52.354;9.756;2022-09-09T11:57:00;1.38;;;1.08;;
14592;SDS011;7383;52.354;9.756;2022-09-09T11:59:30;0.85;;;0.55;;
14592;SDS011;7383;52.354;9.756;2022-09-09T12:01:58;0.85;;;0.60;;
14592;SDS011;7383;52.354;9.756;2022-09-09T12:04:30;0.77;;;0.70;;
14592;SDS011;7383;52.354;9.756;2022-09-09T12:07:02;1.40;;;1.10;;
14592;SDS011;7383;52.354;9.756;2022-09-09T12:12:26;1.13;;;0.70;;
14592;SDS011;7383;52.354;9.756;2022-09-09T12:15:02;1.27;;;1.08;;
14592;SDS011;7383;52.354;9.756;2022-09-09T12:17:46;1.10;;;1.00;;
14592;SDS011;7383;52.354;9.756;2022-09-09T12:20:16;0.80;;;0.80;;
14592;SDS011;7383;52.354;9.756;2022-09-09T12:25:57;0.95;;;0.80;;
14592;SDS011;7383;52.354;9.756;2022-09-09T12:28:39;1.13;;;0.80;;
14592;SDS011;7383;52.354;9.756;2022-09-09T12:31:14;1.00;;;0.75;;
14592;SDS011;7383;52.354;9.756;2022-09-09T12:33:47;1.00;;;0.70;;
14592;SDS011;7383;52.354;9.756;2022-09-09T12:36:18;1.58;;;1.17;;
14592;SDS011;7383;52.354;9.756;2022-09-09T12:38:48;1.00;;;1.00;;
14592;SDS011;7383;52.354;9.756;2022-09-09T12:41:19;0.95;;;0.60;;
14592;SDS011;7383;52.354;9.756;2022-09-09T12:43:47;0.90;;;0.68;;
14592;SDS011;7383;52.354;9.756;2022-09-09T12:46:19;0.80;;;0.80;;
14592;SDS011;7383;52.354;9.756;2022-09-09T12:48:52;0.75;;;0.75;;
14592;SDS011;7383;52.354;9.756;2022-09-09T12:51:21;0.82;;;0.80;;
14592;SDS011;7383;52.354;9.756;2022-09-09T12:53:55;1.50;;;0.70;;
14592;SDS011;7383;52.354;9.756;2022-09-09T12:56:24;0.85;;;0.85;;
14592;SDS011;7383;52.354;9.756;2022-09-09T12:58:53;0.85;;;0.68;;
14592;SDS011;7383;52.354;9.756;2022-09-09T13:01:23;1.67;;;0.75;;
14592;SDS011;7383;52.354;9.756;2022-09-09T13:03:52;1.23;;;0.80;;
14592;SDS011;7383;52.354;9.756;2022-09-09T13:06:21;0.75;;;0.70;;
14592;SDS011;7383;52.354;9.756;2022-09-09T13:08:49;0.82;;;0.82;;
14592;SDS011;7383;52.354;9.756;2022-09-09T13:11:16;1.38;;;0.70;;
14592;SDS011;7383;52.354;9.756;2022-09-09T13:13:52;0.82;;;0.82;;
14592;SDS011;7383;52.354;9.756;2022-09-09T13:16:22;0.85;;;0.75;;
14592;SDS011;7383;52.354;9.756;2022-09-09T13:18:56;0.50;;;0.35;;
14592;SDS011;7383;52.354;9.756;2022-09-09T13:21:30;0.43;;;0.43;;
14592;SDS011;7383;52.354;9.756;2022-09-09T13:23:59;1.05;;;0.70;;
14592;SDS011;7383;52.354;9.756;2022-09-09T13:26:28;0.80;;;0.80;;
14592;SDS011;7383;52.354;9.756;2022-09-09T13:29:07;2.70;;;0.70;;
14592;SDS011;7383;52.354;9.756;2022-09-09T13:31:42;0.93;;;0.93;;
14592;SDS011;7383;52.354;9.756;2022-09-09T13:34:12;0.80;;;0.80;;
14592;SDS011;7383;52.354;9.756;2022-09-09T13:36:40;0.57;;;0.57;;
14592;SDS011;7383;52.354;9.756;2022-09-09T13:39:13;1.02;;;0.95;;
14592;SDS011;7383;52.354;9.756;2022-09-09T13:41:43;1.15;;;0.88;;
14592;SDS011;7383;52.354;9.756;2022-09-09T13:44:17;0.60;;;0.60;;
14592;SDS011;7383;52.354;9.756;2022-09-09T13:46:58;1.08;;;0.80;;
14592;SDS011;7383;52.354;9.756;2022-09-09T13:49:27;0.75;;;0.75;;
14592;SDS011;7383;52.354;9.756;2022-09-09T13:52:03;1.10;;;0.55;;
14592;SDS011;7383;52.354;9.756;2022-09-09T13:54:32;0.63;;;0.63;;
14592;SDS011;7383;52.354;9.756;2022-09-09T13:56:59;0.90;;;0.90;;
14592;SDS011;7383;52.354;9.756;2022-09-09T13:59:27;0.52;;;0.47;;
14592;SDS011;7383;52.354;9.756;2022-09-09T14:01:54;0.80;;;0.80;;
14592;SDS011;7383;52.354;9.756;2022-09-09T14:04:20;0.85;;;0.85;;
14592;SDS011;7383;52.354;9.756;2022-09-09T14:06:46;1.02;;;0.82;;
14592;SDS011;7383;52.354;9.756;2022-09-09T14:09:15;0.60;;;0.50;;
14592;SDS011;7383;52.354;9.756;2022-09-09T14:11:42;0.70;;;0.50;;
14592;SDS011;7383;52.354;9.756;2022-09-09T14:14:10;1.40;;;0.70;;
14592;SDS011;7383;52.354;9.756;2022-09-09T14:16:38;1.65;;;0.70;;
14592;SDS011;7383;52.354;9.756;2022-09-09T14:19:04;1.55;;;0.80;;
14592;SDS011;7383;52.354;9.756;2022-09-09T14:21:31;0.98;;;0.70;;
14592;SDS011;7383;52.354;9.756;2022-09-09T14:23:57;0.80;;;0.80;;
14592;SDS011;7383;52.354;9.756;2022-09-09T14:26:24;0.93;;;0.93;;
14592;SDS011;7383;52.354;9.756;2022-09-09T14:28:51;1.30;;;1.00;;
14592;SDS011;7383;52.354;9.756;2022-09-09T14:31:17;1.45;;;0.82;;
14592;SDS011;7383;52.354;9.756;2022-09-09T14:33:45;1.10;;;0.85;;
14592;SDS011;7383;52.354;9.756;2022-09-09T14:36:12;0.77;;;0.77;;
14592;SDS011;7383;52.354;9.756;2022-09-09T14:38:38;0.90;;;0.90;;
14592;SDS011;7383;52.354;9.756;2022-09-09T14:41:06;0.80;;;0.80;;
14592;SDS011;7383;52.354;9.756;2022-09-09T14:43:35;0.90;;;0.82;;
14592;SDS011;7383;52.354;9.756;2022-09-09T14:46:04;0.80;;;0.80;;
14592;SDS011;7383;52.354;9.756;2022-09-09T14:48:31;1.15;;;0.90;;
14592;SDS011;7383;52.354;9.756;2022-09-09T14:51:05;0.70;;;0.70;;
14592;SDS011;7383;52.354;9.756;2022-09-09T14:53:33;0.40;;;0.40;;
14592;SDS011;7383;52.354;9.756;2022-09-09T14:56:03;1.05;;;0.85;;
14592;SDS011;7383;52.354;9.756;2022-09-09T14:58:33;0.52;;;0.52;;
14592;SDS011;7383;52.354;9.756;2022-09-09T15:01:03;1.25;;;0.68;;
14592;SDS011;7383;52.354;9.756;2022-09-09T15:03:31;0.80;;;0.80;;
14592;SDS011;7383;52.354;9.756;2022-09-09T15:05:58;0.60;;;0.60;;
14592;SDS011;7383;52.354;9.756;2022-09-09T15:08:26;1.23;;;0.60;;
14592;SDS011;7383;52.354;9.756;2022-09-09T15:10:58;0.82;;;0.77;;
14592;SDS011;7383;52.354;9.756;2022-09-09T15:13:25;0.93;;;0.60;;
14592;SDS011;7383;52.354;9.756;2022-09-09T15:15:51;0.77;;;0.65;;
14592;SDS011;7383;52.354;9.756;2022-09-09T15:18:19;0.88;;;0.88;;
14592;SDS011;7383;52.354;9.756;2022-09-09T15:20:45;0.63;;;0.63;;
14592;SDS011;7383;52.354;9.756;2022-09-09T15:23:12;0.88;;;0.85;;
14592;SDS011;7383;52.354;9.756;2022-09-09T15:25:40;0.95;;;0.70;;
14592;SDS011;7383;52.354;9.756;2022-09-09T15:28:16;0.80;;;0.80;;
14592;SDS011;7383;52.354;9.756;2022-09-09T15:30:43;1.38;;;1.00;;
14592;SDS011;7383;52.354;9.756;2022-09-09T15:33:10;0.70;;;0.70;;
14592;SDS011;7383;52.354;9.756;2022-09-09T15:35:36;1.42;;;1.08;;
14592;SDS011;7383;52.354;9.756;2022-09-09T15:38:02;0.73;;;0.73;;
14592;SDS011;7383;52.354;9.756;2022-09-09T15:40:29;1.02;;;0.95;;
14592;SDS011;7383;52.354;9.756;2022-09-09T15:42:58;0.73;;;0.73;;
14592;SDS011;7383;52.354;9.756;2022-09-09T15:45:25;0.52;;;0.52;;